Time;durP1;ratioP1;P1;durP2;ratioP2;P2;SDS_P1;SDS_P2;PMS_P1;PMS_P2;Temp;Humidity;BMP_temperature;BMP_pressure;BME280_temperature;BME280_humidity;BME280_pressure;Samples;Min_cycle;Max_cycle;Signal;HPM_P1;HPM_P2
2022/05/07 00:00:52;;;;;;;10.53;9.53;;;14.30;91.90;;;;;;4973151;28;20469;-75
2022/05/07 00:03:20;;;;;;;10.90;9.80;;;14.20;91.90;;;;;;4973432;28;20442;-75
2022/05/07 00:05:49;;;;;;;10.03;9.13;;;14.20;91.90;;;;;;4973351;28;20481;-75
2022/05/07 00:08:17;;;;;;;9.63;8.83;;;14.20;91.90;;;;;;4974962;28;20473;-75
2022/05/07 00:10:45;;;;;;;10.70;9.80;;;14.20;91.90;;;;;;4974257;28;20461;-75
2022/05/07 00:13:13;;;;;;;10.67;9.50;;;14.20;91.80;;;;;;4972946;28;20823;-75
2022/05/07 00:18:01;;;;;;;9.93;9.10;;;14.20;91.90;;;;;;4974232;28;20438;-75
2022/05/07 00:18:30;;;;;;;11.63;10.43;;;14.10;91.80;;;;;;4974306;28;20485;-75
2022/05/07 00:20:58;;;;;;;11.63;10.63;;;14.10;91.90;;;;;;4974376;28;20466;-75
2022/05/07 00:23:27;;;;;;;11.70;10.70;;;14.10;91.90;;;;;;4974072;28;20491;-75
2022/05/07 00:25:55;;;;;;;10.87;9.93;;;14.10;92.00;;;;;;4973101;28;20792;-75
2022/05/07 00:28:23;;;;;;;11.33;10.23;;;14.00;92.00;;;;;;4972788;28;20457;-75
2022/05/07 00:30:51;;;;;;;10.83;9.87;;;14.00;92.00;;;;;;4972725;28;20461;-75
2022/05/07 00:33:19;;;;;;;11.00;10.17;;;14.00;92.10;;;;;;4973834;28;20905;-75
2022/05/07 00:35:49;;;;;;;10.60;9.70;;;13.90;92.10;;;;;;4974190;28;20411;-75
2022/05/07 00:38:17;;;;;;;11.13;10.13;;;13.90;92.10;;;;;;4972635;28;20579;-75
2022/05/07 00:40:45;;;;;;;11.73;10.63;;;13.90;92.10;;;;;;4972575;28;20448;-75
2022/05/07 00:43:15;;;;;;;10.47;9.37;;;13.90;92.10;;;;;;4971990;28;20438;-75
2022/05/07 00:45:44;;;;;;;11.93;10.90;;;13.80;92.40;;;;;;4972195;28;20445;-75
2022/05/07 00:48:14;;;;;;;10.60;9.70;;;13.80;92.20;;;;;;4972410;28;20545;-75
2022/05/07 00:53:30;;;;;;;12.67;11.57;;;13.70;92.20;;;;;;4972395;28;20513;-75
2022/05/07 00:55:58;;;;;;;11.87;10.87;;;13.70;92.20;;;;;;4972478;28;20982;-75
2022/05/07 00:58:27;;;;;;;12.07;10.90;;;13.70;92.30;;;;;;4972387;28;20538;-75
2022/05/07 01:00:55;;;;;;;11.77;10.80;;;13.60;92.40;;;;;;4972481;28;20492;-74
2022/05/07 01:03:24;;;;;;;11.23;10.23;;;13.60;92.40;;;;;;4972318;28;20553;-75
2022/05/07 01:05:52;;;;;;;12.40;11.43;;;13.60;92.50;;;;;;4972276;28;20499;-75
2022/05/07 01:08:21;;;;;;;13.07;11.87;;;13.50;92.50;;;;;;4973407;28;20540;-75
2022/05/07 01:10:51;;;;;;;12.47;11.17;;;13.50;92.60;;;;;;4972729;28;20474;-75
2022/05/07 01:13:22;;;;;;;11.83;10.83;;;13.50;92.60;;;;;;4972710;28;20549;-75
2022/05/07 01:15:57;;;;;;;12.67;11.57;;;13.50;92.70;;;;;;4973222;28;20784;-75
2022/05/07 01:18:30;;;;;;;12.00;10.90;;;13.40;92.70;;;;;;4972219;28;20450;-75
2022/05/07 01:20:59;;;;;;;11.67;10.60;;;13.40;92.70;;;;;;4971941;28;21057;-75
2022/05/07 01:23:29;;;;;;;11.50;10.50;;;13.40;92.80;;;;;;4972038;28;20449;-75
2022/05/07 01:25:59;;;;;;;13.03;11.73;;;13.40;92.90;;;;;;4972054;28;20446;-74
2022/05/07 01:28:32;;;;;;;12.43;11.43;;;13.40;93.20;;;;;;4972764;28;20483;-75
2022/05/07 01:31:02;;;;;;;13.37;12.07;;;13.30;92.90;;;;;;4972764;28;20994;-75
2022/05/07 01:33:33;;;;;;;12.97;11.77;;;13.30;93.00;;;;;;4971664;28;20532;-75
2022/05/07 01:36:07;;;;;;;13.10;11.80;;;13.30;93.00;;;;;;4971881;28;20452;-75
2022/05/07 01:38:37;;;;;;;14.30;12.97;;;13.30;93.00;;;;;;4972268;28;20465;-75
2022/05/07 01:41:05;;;;;;;13.10;11.97;;;13.20;93.00;;;;;;4971662;28;20465;-75
2022/05/07 01:43:35;;;;;;;13.70;12.50;;;13.20;93.10;;;;;;4971720;28;20450;-75
2022/05/07 01:46:03;;;;;;;14.93;13.63;;;13.20;93.10;;;;;;4973187;28;20445;-75
2022/05/07 01:48:31;;;;;;;13.97;12.83;;;13.10;93.20;;;;;;4973157;28;20442;-75
2022/05/07 01:50:59;;;;;;;14.40;13.10;;;13.10;93.20;;;;;;4971549;28;21068;-75
2022/05/07 01:53:34;;;;;;;14.60;13.40;;;13.10;93.30;;;;;;4971749;28;20469;-75
2022/05/07 01:56:04;;;;;;;14.97;13.57;;;13.10;93.30;;;;;;4972532;28;20912;-75
2022/05/07 01:58:42;;;;;;;15.67;14.20;;;13.10;93.40;;;;;;4971734;28;20517;-75
2022/05/07 02:01:12;;;;;;;15.43;14.07;;;13.00;93.40;;;;;;4971352;28;20473;-75
2022/05/07 02:03:41;;;;;;;15.53;14.23;;;13.00;93.50;;;;;;4971558;28;20458;-75
2022/05/07 02:06:12;;;;;;;15.80;14.30;;;13.00;93.60;;;;;;4971599;28;20975;-74
2022/05/07 02:08:41;;;;;;;16.10;14.70;;;12.90;93.70;;;;;;4971406;28;20522;-75
2022/05/07 02:11:17;;;;;;;16.50;15.00;;;12.90;93.80;;;;;;4971212;28;20501;-74
2022/05/07 02:13:45;;;;;;;14.60;13.40;;;12.90;93.90;;;;;;4971119;28;20548;-75
2022/05/07 02:16:15;;;;;;;16.93;15.53;;;12.90;94.00;;;;;;4971406;28;20445;-74
2022/05/07 02:18:44;;;;;;;16.90;15.40;;;12.90;94.00;;;;;;4971286;28;20464;-75
2022/05/07 02:21:13;;;;;;;18.90;17.30;;;12.90;94.00;;;;;;4970967;28;20973;-75
2022/05/07 02:23:41;;;;;;;17.40;15.90;;;12.80;94.10;;;;;;4972454;28;21001;-75
2022/05/07 02:26:10;;;;;;;16.40;15.00;;;12.80;94.10;;;;;;4971127;28;20499;-75
2022/05/07 02:28:40;;;;;;;17.67;16.17;;;12.80;94.20;;;;;;4970942;28;20464;-74
2022/05/07 02:31:10;;;;;;;17.30;15.80;;;12.80;94.30;;;;;;4971068;28;20566;-74
2022/05/07 02:33:38;;;;;;;17.00;15.50;;;12.70;94.30;;;;;;4970838;28;20477;-75
2022/05/07 02:36:12;;;;;;;18.40;16.63;;;12.70;94.40;;;;;;4971758;28;20477;-75
2022/05/07 02:38:40;;;;;;;17.93;16.37;;;12.70;94.40;;;;;;4974585;28;20449;-75
2022/05/07 02:44:06;;;;;;;17.67;16.20;;;12.70;94.60;;;;;;5021635;28;20945;-75
2022/05/07 02:46:35;;;;;;;17.93;16.33;;;12.60;94.60;;;;;;4985241;28;20525;-75
2022/05/07 02:49:10;;;;;;;17.73;16.13;;;12.60;94.70;;;;;;4986585;28;20450;-75
2022/05/07 02:51:38;;;;;;;19.77;17.97;;;12.60;94.70;;;;;;4979084;28;20872;-75
2022/05/07 02:54:06;;;;;;;20.53;18.83;;;12.60;94.80;;;;;;4977153;28;20465;-75
2022/05/07 02:56:35;;;;;;;20.40;18.40;;;12.60;95.00;;;;;;4977851;28;20536;-75
2022/05/07 02:59:06;;;;;;;19.50;17.80;;;12.60;95.10;;;;;;4973722;28;21012;-74
2022/05/07 03:01:35;;;;;;;19.53;17.77;;;12.60;95.10;;;;;;4974185;28;20446;-74
2022/05/07 03:04:03;;;;;;;20.70;18.90;;;12.60;95.20;;;;;;4973040;28;21022;-75
2022/05/07 03:06:31;;;;;;;20.10;18.23;;;12.60;95.30;;;;;;4970228;28;20449;-74
2022/05/07 03:09:00;;;;;;;20.80;18.90;;;12.60;95.40;;;;;;4972462;28;20446;-75
2022/05/07 03:11:29;;;;;;;20.93;18.90;;;12.60;95.50;;;;;;4971029;28;20452;-75
2022/05/07 03:13:57;;;;;;;20.13;18.43;;;12.60;95.60;;;;;;4971095;28;20476;-75
2022/05/07 03:16:27;;;;;;;20.60;18.80;;;12.60;95.80;;;;;;4972293;28;20449;-75
2022/05/07 03:18:55;;;;;;;22.00;20.10;;;12.60;95.80;;;;;;4970624;28;20453;-75
2022/05/07 03:21:24;;;;;;;20.20;18.30;;;12.60;95.90;;;;;;4970788;28;20457;-75
2022/05/07 03:23:53;;;;;;;20.90;19.10;;;12.60;96.00;;;;;;4970471;28;20485;-75
2022/05/07 03:26:22;;;;;;;20.73;18.93;;;12.60;96.00;;;;;;4970367;28;20455;-75
2022/05/07 03:28:50;;;;;;;21.03;19.20;;;12.60;96.10;;;;;;4971767;28;20446;-75
2022/05/07 03:31:19;;;;;;;19.57;18.00;;;12.60;96.20;;;;;;4970215;28;20476;-75
2022/05/07 03:33:49;;;;;;;21.03;19.17;;;12.60;96.30;;;;;;4970055;28;20482;-75
2022/05/07 03:36:23;;;;;;;19.03;17.23;;;12.70;96.50;;;;;;4970276;28;20476;-75
2022/05/07 03:38:54;;;;;;;19.27;17.77;;;12.70;96.90;;;;;;4970202;28;20441;-75
2022/05/07 03:41:30;;;;;;;21.03;19.23;;;12.60;96.60;;;;;;4970156;28;20530;-75
2022/05/07 03:43:59;;;;;;;19.07;17.23;;;12.70;96.70;;;;;;4970198;28;20537;-75
2022/05/07 03:46:29;;;;;;;20.83;18.97;;;12.70;96.80;;;;;;4971602;28;20819;-75
2022/05/07 03:49:02;;;;;;;19.83;17.93;;;12.70;96.90;;;;;;4969948;28;20446;-75
2022/05/07 03:53:29;;;;;;;19.90;18.20;;;12.70;96.90;;;;;;4970154;28;20448;-75
2022/05/07 03:54:22;;;;;;;22.00;20.10;;;12.70;97.00;;;;;;4970146;28;20576;-75
2022/05/07 03:56:52;;;;;;;18.67;17.00;;;12.70;97.00;;;;;;4970295;28;20495;-75
2022/05/07 03:59:25;;;;;;;20.33;18.53;;;12.70;97.10;;;;;;4970349;28;20477;-75
2022/05/07 04:01:55;;;;;;;22.43;20.33;;;12.70;97.10;;;;;;4969893;28;20461;-75
2022/05/07 04:04:34;;;;;;;21.67;19.60;;;12.70;97.20;;;;;;4970158;28;20446;-75
2022/05/07 04:07:08;;;;;;;21.80;19.80;;;12.80;97.30;;;;;;4969860;28;20481;-75
2022/05/07 04:09:37;;;;;;;22.73;20.77;;;12.80;97.40;;;;;;4969677;28;20465;-74
2022/05/07 04:12:12;;;;;;;23.20;21.07;;;12.80;97.50;;;;;;4969888;28;20528;-74
2022/05/07 04:14:40;;;;;;;23.47;21.23;;;12.80;97.60;;;;;;4969805;28;20841;-75
2022/05/07 04:17:09;;;;;;;20.93;19.03;;;12.80;97.60;;;;;;4971226;28;20500;-75
2022/05/07 04:19:38;;;;;;;24.03;21.80;;;12.80;97.70;;;;;;4974057;28;20548;-75
2022/05/07 04:22:07;;;;;;;22.07;19.97;;;12.80;97.70;;;;;;4972899;28;20449;-75
2022/05/07 04:24:44;;;;;;;23.40;21.10;;;12.80;97.70;;;;;;4972953;28;20888;-75
2022/05/07 04:27:12;;;;;;;20.20;18.40;;;12.90;97.80;;;;;;4972951;28;20442;-75
2022/05/07 04:29:41;;;;;;;20.97;19.20;;;12.90;97.90;;;;;;4973013;28;21018;-75
2022/05/07 04:32:17;;;;;;;21.47;19.53;;;12.90;97.90;;;;;;4973083;28;20981;-75
2022/05/07 04:34:53;;;;;;;21.37;19.57;;;12.90;98.00;;;;;;4972832;28;20993;-75
2022/05/07 04:37:22;;;;;;;22.07;20.07;;;13.00;98.10;;;;;;4973088;28;20492;-75
2022/05/07 04:39:50;;;;;;;20.87;18.90;;;13.00;98.20;;;;;;4974094;28;20891;-75
2022/05/07 04:42:19;;;;;;;21.77;19.57;;;13.00;98.20;;;;;;4972619;28;20450;-75
2022/05/07 04:44:54;;;;;;;21.30;19.40;;;13.10;98.60;;;;;;4972736;28;20445;-75
2022/05/07 04:47:33;;;;;;;23.67;21.37;;;13.10;98.40;;;;;;4972644;28;20438;-75
2022/05/07 04:50:07;;;;;;;21.23;19.33;;;13.10;98.40;;;;;;4972632;28;20508;-75
2022/05/07 04:52:43;;;;;;;25.93;23.40;;;13.20;98.60;;;;;;4973389;28;20442;-75
2022/05/07 04:55:11;;;;;;;23.40;21.30;;;13.20;98.60;;;;;;4972446;28;20519;-75
2022/05/07 04:57:40;;;;;;;22.90;20.80;;;13.30;98.70;;;;;;4973655;28;20445;-75
2022/05/07 05:00:10;;;;;;;24.07;21.67;;;13.30;98.80;;;;;;4972326;28;20466;-75
2022/05/07 05:02:53;;;;;;;24.37;22.10;;;13.30;98.90;;;;;;4972405;28;20977;-75
2022/05/07 05:05:26;;;;;;;25.40;23.10;;;13.40;99.00;;;;;;4972290;28;20820;-75
2022/05/07 05:08:08;;;;;;;25.03;22.67;;;13.40;99.00;;;;;;4972301;28;20452;-75
2022/05/07 05:10:36;;;;;;;24.20;21.90;;;13.40;99.10;;;;;;4972423;28;20482;-75
2022/05/07 05:13:06;;;;;;;25.17;22.90;;;13.50;99.10;;;;;;4973479;28;20438;-75
2022/05/07 05:15:36;;;;;;;25.10;22.70;;;13.50;99.20;;;;;;4972368;28;21032;-75
2022/05/07 05:18:12;;;;;;;27.93;24.97;;;13.50;99.20;;;;;;4972148;28;20803;-75
2022/05/07 05:20:42;;;;;;;26.87;24.23;;;13.60;99.30;;;;;;4972284;28;20800;-75
2022/05/07 05:23:25;;;;;;;29.80;27.00;;;13.60;99.40;;;;;;4972060;28;20821;-75
2022/05/07 05:25:53;;;;;;;28.97;26.27;;;13.60;99.40;;;;;;4971897;28;20457;-75
2022/05/07 05:28:29;;;;;;;31.53;28.10;;;13.70;99.50;;;;;;4971940;28;20446;-75
2022/05/07 05:31:03;;;;;;;29.17;26.37;;;13.70;99.50;;;;;;4971249;28;20994;-75
2022/05/07 05:33:36;;;;;;;32.40;29.00;;;13.80;99.70;;;;;;4973021;28;20548;-75
2022/05/07 05:36:14;;;;;;;33.43;30.17;;;13.80;99.70;;;;;;4971848;28;20469;-75
2022/05/07 05:38:45;;;;;;;32.37;29.03;;;13.80;99.80;;;;;;4972048;28;20481;-75
2022/05/07 05:41:16;;;;;;;31.40;28.00;;;13.90;99.90;;;;;;4971849;28;20484;-75
2022/05/07 05:43:47;;;;;;;32.43;29.07;;;13.90;99.90;;;;;;4973000;28;20514;-75
2022/05/07 05:46:17;;;;;;;31.07;27.93;;;13.90;99.90;;;;;;4972076;28;20443;-75
2022/05/07 05:48:48;;;;;;;30.83;27.83;;;14.00;99.90;;;;;;4971604;28;20886;-75
2022/05/07 05:51:18;;;;;;;33.07;29.77;;;14.00;99.90;;;;;;4971527;28;20444;-75
2022/05/07 05:53:48;;;;;;;33.07;29.97;;;14.10;99.90;;;;;;4971922;28;20450;-75
2022/05/07 05:56:17;;;;;;;37.10;33.27;;;14.10;99.90;;;;;;4971381;28;20986;-75
2022/05/07 05:58:50;;;;;;;37.37;33.67;;;14.20;99.90;;;;;;4971766;28;20966;-75
2022/05/07 06:01:22;;;;;;;37.63;33.90;;;14.20;99.90;;;;;;4971435;28;20524;-75
2022/05/07 06:04:12;;;;;;;36.27;32.63;;;14.20;99.90;;;;;;4971850;28;20451;-75
2022/05/07 06:06:41;;;;;;;37.07;33.57;;;14.30;99.90;;;;;;4972539;28;20487;-75
2022/05/07 06:09:11;;;;;;;37.10;33.37;;;14.30;99.90;;;;;;4971316;28;20521;-75
2022/05/07 06:11:40;;;;;;;34.90;31.33;;;14.30;99.90;;;;;;4971816;28;20465;-75
2022/05/07 06:14:10;;;;;;;36.77;33.07;;;14.40;99.90;;;;;;4971231;28;20456;-75
2022/05/07 06:16:38;;;;;;;37.43;33.63;;;14.40;99.90;;;;;;4972269;28;20469;-75
2022/05/07 06:19:13;;;;;;;37.30;33.47;;;14.40;99.90;;;;;;4971181;28;20449;-75
2022/05/07 06:21:52;;;;;;;36.93;33.27;;;14.50;99.90;;;;;;4971342;28;20533;-75
2022/05/07 06:27:31;;;;;;;41.30;37.20;;;14.50;99.90;;;;;;4970983;28;20531;-75
2022/05/07 06:30:08;;;;;;;42.40;38.10;;;14.50;99.90;;;;;;4971212;28;20456;-75
2022/05/07 06:32:45;;;;;;;41.90;37.73;;;14.60;99.90;;;;;;4971272;28;20457;-75
2022/05/07 06:35:13;;;;;;;43.20;38.60;;;14.60;99.90;;;;;;4970860;28;20485;-75
2022/05/07 06:37:59;;;;;;;39.77;35.57;;;14.70;99.90;;;;;;4971176;28;20453;-75
2022/05/07 06:40:28;;;;;;;38.47;34.27;;;14.80;99.90;;;;;;4970815;28;20512;-75
2022/05/07 06:42:57;;;;;;;37.50;33.80;;;14.80;99.90;;;;;;4970496;28;20454;-75
2022/05/07 06:45:32;;;;;;;37.70;33.70;;;14.90;99.90;;;;;;4970771;28;20422;-74
2022/05/07 06:48:00;;;;;;;39.33;33.57;;;14.90;99.90;;;;;;4972014;28;20438;-75
2022/05/07 06:50:29;;;;;;;38.27;33.40;;;15.00;99.90;;;;;;4970621;28;20979;-75
2022/05/07 06:52:58;;;;;;;38.30;34.20;;;15.10;99.90;;;;;;4972277;28;20454;-75
2022/05/07 06:55:29;;;;;;;36.27;32.57;;;15.30;99.90;;;;;;4970676;28;20481;-75
2022/05/07 06:57:58;;;;;;;38.80;34.63;;;15.40;99.90;;;;;;4972168;28;20821;-75
2022/05/07 07:00:46;;;;;;;37.37;33.57;;;15.60;99.90;;;;;;4971168;28;20846;-77
2022/05/07 07:03:15;;;;;;;40.87;36.47;;;15.80;99.90;;;;;;4972968;28;20454;-77
2022/05/07 07:05:43;;;;;;;37.87;33.87;;;15.90;99.90;;;;;;4971127;28;20442;-78
2022/05/07 07:08:22;;;;;;;41.30;36.67;;;16.00;99.90;;;;;;4971345;28;20432;-77
2022/05/07 07:10:50;;;;;;;36.00;32.13;;;16.10;99.90;;;;;;4972223;28;20968;-77
2022/05/07 07:13:20;;;;;;;35.20;31.70;;;16.20;99.90;;;;;;4972437;28;20943;-77
2022/05/07 07:15:49;;;;;;;35.60;32.20;;;16.30;99.90;;;;;;4970973;28;20532;-77
2022/05/07 07:18:17;;;;;;;34.60;31.30;;;16.40;99.90;;;;;;4970962;28;20965;-77
2022/05/07 07:20:48;;;;;;;35.00;30.97;;;16.50;99.90;;;;;;4972574;28;20945;-77
2022/05/07 07:23:18;;;;;;;33.33;29.93;;;16.50;99.90;;;;;;4971681;28;20540;-77
2022/05/07 07:25:47;;;;;;;36.77;32.97;;;16.60;99.90;;;;;;4971312;28;20457;-78
2022/05/07 07:28:15;;;;;;;36.27;32.43;;;16.60;99.90;;;;;;4971416;28;20460;-77
2022/05/07 07:30:44;;;;;;;34.53;30.97;;;16.70;99.90;;;;;;4971653;28;21013;-77
2022/05/07 07:33:14;;;;;;;36.43;32.63;;;16.80;99.90;;;;;;4971184;28;20549;-77
2022/05/07 07:35:43;;;;;;;34.07;30.77;;;16.90;99.90;;;;;;4972557;28;20430;-77
2022/05/07 07:38:12;;;;;;;33.17;29.80;;;16.90;99.90;;;;;;4971520;28;20489;-78
2022/05/07 07:40:43;;;;;;;32.10;29.00;;;17.10;99.90;;;;;;4971346;28;20843;-77
2022/05/07 07:43:12;;;;;;;29.73;26.73;;;17.30;99.90;;;;;;4971072;28;20449;-77
2022/05/07 07:48:26;;;;;;;25.70;23.20;;;17.70;99.90;;;;;;4976865;28;20441;-79
2022/05/07 07:50:54;;;;;;;23.03;20.83;;;17.90;99.90;;;;;;4980163;28;20489;-78
2022/05/07 07:53:24;;;;;;;25.57;23.00;;;18.10;99.90;;;;;;4973565;28;20444;-76
2022/05/07 07:55:55;;;;;;;25.60;23.00;;;18.40;99.90;;;;;;4973524;28;20922;-76
2022/05/07 07:58:24;;;;;;;25.63;23.10;;;18.70;99.90;;;;;;4976663;28;20458;-78
2022/05/07 08:00:52;;;;;;;22.73;20.57;;;18.80;99.90;;;;;;4976894;28;20468;-78
2022/05/07 08:03:21;;;;;;;11.77;10.67;;;18.90;99.90;;;;;;4976131;28;20843;-77
2022/05/07 08:05:52;;;;;;;10.07;9.03;;;19.10;99.90;;;;;;4976512;28;20430;-77
2022/05/07 08:13:56;;;;;;;15.63;12.93;;;19.20;98.70;;;;;;4973391;28;20529;-77
2022/05/07 08:16:25;;;;;;;14.60;13.27;;;19.30;98.40;;;;;;4973291;28;20465;-77
2022/05/07 08:18:54;;;;;;;16.10;14.43;;;19.30;98.20;;;;;;4973245;28;20445;-77
2022/05/07 08:21:22;;;;;;;14.87;13.47;;;19.40;98.00;;;;;;4974656;28;20843;-77
2022/05/07 08:23:50;;;;;;;15.63;13.20;;;19.50;97.90;;;;;;4973218;28;20536;-77
2022/05/07 08:26:20;;;;;;;11.97;10.77;;;19.60;97.70;;;;;;4973474;28;20457;-77
2022/05/07 08:28:51;;;;;;;12.27;11.07;;;19.60;97.40;;;;;;4976375;28;20460;-79
2022/05/07 08:31:21;;;;;;;11.20;10.00;;;19.70;97.00;;;;;;4977286;28;20492;-79
2022/05/07 08:33:51;;;;;;;9.30;8.40;;;19.90;97.00;;;;;;4976230;28;20479;-79
2022/05/07 08:36:19;;;;;;;9.70;8.70;;;20.10;96.60;;;;;;4976913;28;20531;-79
2022/05/07 08:38:47;;;;;;;12.80;10.90;;;20.30;96.40;;;;;;4977297;28;20822;-77
2022/05/07 08:41:15;;;;;;;12.07;10.87;;;20.30;96.20;;;;;;4973784;28;20478;-77
2022/05/07 08:43:45;;;;;;;13.20;12.00;;;20.30;95.90;;;;;;4973480;28;21031;-77
2022/05/07 08:46:16;;;;;;;9.60;8.60;;;20.40;95.80;;;;;;4973579;28;20464;-77
2022/05/07 08:48:46;;;;;;;6.20;5.70;;;20.60;95.60;;;;;;4973599;28;20544;-77
2022/05/07 08:51:16;;;;;;;5.87;4.43;;;20.80;95.00;;;;;;4973625;28;20527;-77
2022/05/07 08:53:48;;;;;;;2.73;2.47;;;20.90;94.50;;;;;;4989769;28;20488;-77
2022/05/07 08:56:17;;;;;;;4.33;3.40;;;20.90;94.10;;;;;;4974854;28;20436;-77
2022/05/07 08:58:50;;;;;;;7.17;3.50;;;20.90;93.80;;;;;;4973668;28;20454;-77
2022/05/07 09:01:19;;;;;;;8.57;7.37;;;20.90;93.50;;;;;;4974701;28;20462;-77
2022/05/07 09:03:49;;;;;;;8.47;6.90;;;20.80;93.20;;;;;;4973523;28;20457;-77
2022/05/07 09:06:23;;;;;;;10.37;9.40;;;20.80;93.00;;;;;;4988484;28;20458;-77
2022/05/07 09:08:53;;;;;;;8.30;7.07;;;20.80;93.00;;;;;;4973136;28;20446;-77
2022/05/07 09:11:21;;;;;;;8.20;7.30;;;20.80;92.90;;;;;;4973015;28;20469;-77
2022/05/07 09:14:04;;;;;;;6.77;6.07;;;20.90;92.70;;;;;;4973366;28;20532;-78
2022/05/07 09:16:40;;;;;;;8.40;7.50;;;20.90;92.60;;;;;;4973419;28;20450;-77
2022/05/07 09:19:20;;;;;;;16.40;14.90;;;21.00;92.60;;;;;;4973314;28;20934;-78
2022/05/07 09:21:48;;;;;;;15.70;14.30;;;21.10;92.70;;;;;;4973620;28;20476;-78
2022/05/07 09:24:18;;;;;;;15.30;13.77;;;21.20;93.00;;;;;;4973185;28;20457;-78
2022/05/07 09:26:47;;;;;;;17.17;15.53;;;21.30;93.00;;;;;;4975148;28;20503;-78
2022/05/07 09:29:18;;;;;;;16.03;14.53;;;21.40;93.10;;;;;;4973563;28;20456;-78
2022/05/07 09:31:48;;;;;;;15.73;14.13;;;21.40;93.20;;;;;;4974441;28;20438;-77
2022/05/07 09:37:14;;;;;;;14.63;13.20;;;21.40;93.30;;;;;;4972988;28;20575;-78
2022/05/07 09:39:47;;;;;;;13.77;12.47;;;21.40;93.30;;;;;;4972819;28;20518;-77
2022/05/07 09:42:17;;;;;;;14.83;13.43;;;21.40;93.30;;;;;;4972999;28;20442;-77
2022/05/07 09:44:47;;;;;;;13.80;12.50;;;21.50;93.20;;;;;;4972835;28;20449;-77
2022/05/07 09:47:16;;;;;;;14.87;13.30;;;21.50;93.20;;;;;;4973341;28;20495;-78
2022/05/07 09:52:30;;;;;;;16.97;11.97;;;21.50;93.20;;;;;;4972635;28;20537;-78
2022/05/07 09:57:44;;;;;;;13.30;11.80;;;21.50;92.80;;;;;;4973119;28;20466;-78
2022/05/07 10:00:19;;;;;;;13.20;11.93;;;21.60;92.90;;;;;;4973035;28;20515;-78
2022/05/07 10:03:00;;;;;;;13.57;12.20;;;21.60;92.80;;;;;;4973153;28;20449;-78
2022/05/07 10:05:44;;;;;;;13.70;12.33;;;21.70;92.70;;;;;;4973173;28;20485;-78
2022/05/07 10:08:30;;;;;;;14.90;13.40;;;21.70;92.50;;;;;;4973054;28;21027;-78
2022/05/07 10:10:59;;;;;;;13.23;12.03;;;21.70;92.70;;;;;;4972707;28;20852;-78
2022/05/07 10:13:27;;;;;;;13.47;12.20;;;21.70;92.40;;;;;;4972754;28;20457;-78
2022/05/07 10:16:04;;;;;;;13.83;12.53;;;21.70;92.20;;;;;;4974525;28;20799;-78
2022/05/07 10:18:38;;;;;;;12.07;10.87;;;21.60;92.10;;;;;;4972570;28;20523;-78
2022/05/07 10:21:14;;;;;;;11.03;9.83;;;21.60;92.10;;;;;;4974061;28;20514;-78
2022/05/07 10:23:51;;;;;;;10.33;9.40;;;21.70;92.10;;;;;;4973004;28;20527;-78
2022/05/07 10:26:19;;;;;;;10.87;9.80;;;21.70;92.10;;;;;;4972817;28;21025;-78
2022/05/07 10:28:48;;;;;;;10.50;9.60;;;21.80;92.10;;;;;;4972791;28;20528;-78
2022/05/07 10:31:19;;;;;;;12.50;11.33;;;21.90;92.00;;;;;;4972950;28;20516;-78
2022/05/07 10:33:48;;;;;;;10.97;10.07;;;22.00;91.90;;;;;;4972811;28;20500;-78
2022/05/07 10:36:17;;;;;;;11.83;10.63;;;22.00;91.80;;;;;;4972733;28;20898;-78
2022/05/07 10:38:47;;;;;;;11.07;10.07;;;21.90;91.60;;;;;;4972964;28;21009;-78
2022/05/07 10:41:25;;;;;;;11.70;10.50;;;21.90;91.60;;;;;;4972733;28;20477;-78
2022/05/07 10:44:06;;;;;;;11.43;10.43;;;21.90;91.40;;;;;;4972304;28;20511;-78
2022/05/07 10:46:44;;;;;;;13.93;12.03;;;22.00;91.40;;;;;;4973918;28;20430;-78
2022/05/07 10:49:17;;;;;;;11.40;10.40;;;22.10;91.70;;;;;;4972725;28;20529;-78
2022/05/07 10:51:51;;;;;;;9.80;8.90;;;22.30;91.60;;;;;;4974327;28;20414;-78
2022/05/07 10:54:21;;;;;;;11.33;10.30;;;22.30;91.50;;;;;;4972638;28;20442;-78
2022/05/07 10:56:52;;;;;;;11.77;10.50;;;22.50;91.30;;;;;;4972907;28;20442;-78
2022/05/07 10:59:21;;;;;;;12.43;11.23;;;22.50;91.20;;;;;;4972543;28;20498;-79
2022/05/07 11:01:51;;;;;;;11.87;10.60;;;22.60;91.20;;;;;;4973258;28;20548;-79
2022/05/07 11:04:22;;;;;;;12.27;11.17;;;22.50;91.20;;;;;;4973275;28;20438;-78
2022/05/07 11:06:52;;;;;;;13.47;12.17;;;22.40;91.00;;;;;;4973171;28;20456;-78
2022/05/07 11:09:22;;;;;;;13.50;12.23;;;22.40;91.10;;;;;;4973666;28;20515;-78
2022/05/07 11:11:54;;;;;;;14.03;12.50;;;22.30;91.00;;;;;;4973511;28;21041;-78
2022/05/07 11:14:24;;;;;;;13.83;12.37;;;22.20;91.00;;;;;;4973206;28;20449;-78
2022/05/07 11:16:55;;;;;;;13.57;12.10;;;22.10;90.90;;;;;;4973930;28;20422;-78
2022/05/07 11:19:28;;;;;;;14.67;13.27;;;22.10;91.00;;;;;;4972356;28;20489;-78
2022/05/07 11:21:59;;;;;;;13.30;11.90;;;22.00;91.10;;;;;;4972735;28;20521;-78
2022/05/07 11:24:28;;;;;;;13.33;12.10;;;22.00;91.10;;;;;;4972289;28;20450;-78
2022/05/07 11:26:58;;;;;;;13.00;11.77;;;22.00;91.00;;;;;;4972218;28;20454;-78
2022/05/07 11:29:28;;;;;;;15.97;14.67;;;22.00;90.90;;;;;;4978067;28;20464;-80
2022/05/07 11:31:59;;;;;;;13.00;11.60;;;22.00;90.90;;;;;;4976832;28;20458;-81
2022/05/07 11:34:32;;;;;;;14.17;12.67;;;22.00;91.20;;;;;;4978929;28;20468;-81
2022/05/07 11:37:11;;;;;;;14.10;12.80;;;22.10;91.00;;;;;;4976486;28;20485;-79
2022/05/07 11:39:54;;;;;;;14.77;13.30;;;22.20;90.80;;;;;;4984719;28;20576;-81
2022/05/07 11:42:33;;;;;;;14.10;12.73;;;22.20;91.10;;;;;;4982708;28;20463;-80
2022/05/07 11:45:26;;;;;;;13.30;12.00;;;22.20;90.70;;;;;;4980522;28;20993;-80
2022/05/07 11:47:59;;;;;;;13.23;12.03;;;22.20;90.70;;;;;;4980817;28;20871;-80
2022/05/07 11:50:29;;;;;;;14.13;12.80;;;22.20;90.80;;;;;;4979171;28;20470;-79
2022/05/07 11:53:09;;;;;;;14.40;13.10;;;22.20;90.80;;;;;;4979981;28;20442;-80
2022/05/07 11:55:37;;;;;;;13.63;12.33;;;22.20;90.70;;;;;;4979035;28;20823;-80
2022/05/07 11:58:13;;;;;;;13.63;12.30;;;22.20;90.70;;;;;;4979321;28;20527;-79
2022/05/07 12:00:42;;;;;;;13.07;11.80;;;22.20;90.80;;;;;;4980693;28;20467;-79
2022/05/07 12:03:12;;;;;;;13.10;11.93;;;22.10;90.70;;;;;;4979910;28;20484;-79
2022/05/07 12:05:42;;;;;;;12.50;11.30;;;22.10;90.70;;;;;;4978688;28;20453;-79
2022/05/07 12:08:15;;;;;;;13.37;12.10;;;22.10;90.60;;;;;;4978710;28;20450;-79
2022/05/07 12:10:44;;;;;;;11.93;10.80;;;22.00;90.60;;;;;;4979885;28;20838;-79
2022/05/07 12:13:15;;;;;;;13.70;12.17;;;22.00;90.90;;;;;;4979510;28;20455;-79
2022/05/07 12:18:36;;;;;;;12.97;11.30;;;21.90;90.50;;;;;;4979831;28;20454;-79
2022/05/07 12:21:06;;;;;;;11.67;10.70;;;21.80;90.50;;;;;;4977809;28;20473;-79
2022/05/07 12:31:57;;;;;;;11.40;10.30;;;21.80;90.50;;;;;;4978553;28;20433;-79
2022/05/07 12:34:32;;;;;;;11.17;10.00;;;21.80;90.40;;;;;;4977109;28;20471;-79
2022/05/07 12:37:01;;;;;;;12.97;10.50;;;21.80;90.40;;;;;;4977639;28;20488;-79
2022/05/07 12:39:29;;;;;;;10.80;9.70;;;21.80;90.30;;;;;;4976409;28;20564;-79
2022/05/07 12:42:05;;;;;;;10.23;9.03;;;21.70;90.20;;;;;;4978626;28;20442;-80
2022/05/07 12:44:34;;;;;;;12.30;11.13;;;21.80;90.40;;;;;;4982971;28;20453;-80
2022/05/07 12:47:02;;;;;;;13.00;11.90;;;21.90;90.40;;;;;;4988830;28;20454;-80
2022/05/07 12:49:32;;;;;;;12.27;10.33;;;22.00;90.30;;;;;;4990606;28;20468;-80
2022/05/07 12:52:02;;;;;;;11.37;10.30;;;22.00;90.30;;;;;;4989196;28;20544;-80
2022/05/07 12:54:31;;;;;;;13.30;11.47;;;22.10;90.30;;;;;;4988168;28;20993;-80
2022/05/07 12:57:09;;;;;;;12.70;11.50;;;22.10;90.20;;;;;;4990129;28;20489;-80
2022/05/07 12:59:38;;;;;;;12.80;11.60;;;22.10;90.00;;;;;;4992692;28;20485;-80
2022/05/07 13:02:08;;;;;;;12.17;11.00;;;22.00;90.00;;;;;;4995963;28;20446;-80
2022/05/07 13:04:38;;;;;;;13.73;12.53;;;22.00;90.00;;;;;;4982529;28;20458;-77
2022/05/07 13:07:06;;;;;;;19.60;17.83;;;21.90;90.00;;;;;;4973793;28;20893;-78
2022/05/07 13:09:34;;;;;;;14.63;13.40;;;21.80;90.10;;;;;;4973980;28;20465;-79
2022/05/07 13:12:26;;;;;;;13.90;12.50;;;21.70;90.50;;;;;;4973943;28;20434;-79
2022/05/07 13:14:57;;;;;;;13.60;12.30;;;21.50;91.00;;;;;;4973733;28;20554;-78
2022/05/07 13:17:26;;;;;;;15.10;13.63;;;21.40;91.50;;;;;;4974887;28;20915;-78
2022/05/07 13:19:56;;;;;;;13.93;12.67;;;21.30;91.90;;;;;;4972587;28;20513;-78
2022/05/07 13:22:26;;;;;;;15.60;14.20;;;21.10;92.10;;;;;;4973999;28;20469;-78
2022/05/07 13:24:54;;;;;;;14.33;13.03;;;20.90;92.40;;;;;;4974247;28;20496;-77